Time;durP1;ratioP1;P1;durP2;ratioP2;P2;SDS_P1;SDS_P2;PMS_P1;PMS_P2;Temp;Humidity;BMP_temperature;BMP_pressure;BME280_temperature;BME280_humidity;BME280_pressure;Samples;Min_cycle;Max_cycle;Signal;HPM_P1;HPM_P2
2022/03/04 00:00:32;;;;;;;54.72;17.08;;;;;;;-0.98;100.00;98948.50;4355049;32;20048;-80
2022/03/04 00:03:08;;;;;;;41.33;15.38;;;;;;;-1.08;100.00;98932.06;4351911;32;20039;-83
2022/03/04 00:05:34;;;;;;;48.67;16.48;;;;;;;-0.95;100.00;98951.59;4355152;32;20043;-81
2022/03/04 00:08:02;;;;;;;41.80;16.25;;;;;;;-1.31;100.00;98893.25;4353359;32;20130;-81
2022/03/04 00:10:28;;;;;;;44.70;16.58;;;;;;;-0.96;100.00;98951.78;4353526;32;20035;-81
2022/03/04 00:12:55;;;;;;;52.90;16.35;;;;;;;-1.03;100.00;98940.28;4350436;32;20040;-81
2022/03/04 00:15:22;;;;;;;44.35;15.00;;;;;;;-1.30;100.00;98902.81;4350071;32;20043;-81
2022/03/04 00:17:49;;;;;;;39.88;15.35;;;;;;;-1.36;100.00;98903.53;4334749;33;20339;-81
2022/03/04 00:20:16;;;;;;;44.55;16.50;;;;;;;-1.30;100.00;98900.19;4354626;32;20036;-80
2022/03/04 00:22:46;;;;;;;46.55;15.90;;;;;;;-1.43;100.00;98871.72;4339562;33;20357;-81
2022/03/04 00:25:14;;;;;;;46.28;16.35;;;;;;;-1.08;100.00;98953.22;4322970;33;20054;-78
2022/03/04 00:27:42;;;;;;;40.08;15.75;;;;;;;-1.32;100.00;98902.19;4339002;33;20068;-79
2022/03/04 00:30:09;;;;;;;48.17;16.95;;;;;;;-1.18;100.00;98925.19;4341070;33;20085;-80
2022/03/04 00:32:36;;;;;;;45.05;18.12;;;;;;;-1.36;100.00;98895.59;4334844;33;20394;-81
2022/03/04 00:35:05;;;;;;;39.58;16.37;;;;;;;-1.27;100.00;98902.47;4339766;33;20060;-81
2022/03/04 00:37:31;;;;;;;44.10;15.68;;;;;;;-0.97;100.00;98944.88;4330293;33;20133;-78
2022/03/04 00:39:58;;;;;;;49.45;16.30;;;;;;;-1.79;100.00;98822.09;4347212;33;20056;-78
2022/03/04 00:42:27;;;;;;;48.85;16.52;;;;;;;-1.33;100.00;98887.31;4340655;33;20040;-79
2022/03/04 00:44:54;;;;;;;37.63;15.43;;;;;;;-1.38;100.00;98884.41;4355343;32;20412;-79
2022/03/04 00:47:21;;;;;;;53.15;17.70;;;;;;;-0.89;100.00;98944.78;4355255;33;20088;-79
2022/03/04 00:49:48;;;;;;;50.92;16.15;;;;;;;-0.95;100.00;98932.28;4353583;33;20097;-79
2022/03/04 00:52:15;;;;;;;43.33;18.48;;;;;;;-0.94;100.00;98944.50;4341452;33;20126;-81
2022/03/04 00:54:41;;;;;;;44.15;16.92;;;;;;;-1.25;100.00;98889.91;4342162;33;20078;-81
2022/03/04 00:57:07;;;;;;;51.33;18.48;;;;;;;-1.20;100.00;98902.59;4341563;33;20035;-81
2022/03/04 00:59:34;;;;;;;60.65;19.45;;;;;;;-0.93;100.00;98930.28;4352314;33;20062;-80
2022/03/04 01:02:01;;;;;;;50.85;17.05;;;;;;;-1.04;100.00;98912.19;4354401;32;20090;-82
2022/03/04 01:04:27;;;;;;;59.33;19.73;;;;;;;-1.05;100.00;98910.53;4354576;33;20048;-81
2022/03/04 01:06:54;;;;;;;50.88;18.40;;;;;;;-1.20;100.00;98887.53;4353978;33;20044;-81
2022/03/04 01:09:21;;;;;;;57.70;18.15;;;;;;;-1.17;100.00;98887.19;4340792;33;20101;-77
2022/03/04 01:11:48;;;;;;;45.35;18.12;;;;;;;-0.76;100.00;98946.84;4338396;33;20273;-80
2022/03/04 01:14:15;;;;;;;50.42;18.67;;;;;;;-0.79;100.00;98950.66;4353354;33;20404;-81
2022/03/04 01:16:41;;;;;;;50.65;18.17;;;;;;;-1.44;100.00;98854.22;4353225;33;20080;-80
2022/03/04 01:19:08;;;;;;;47.78;18.35;;;;;;;-1.18;100.00;98900.56;4338319;33;20165;-78
2022/03/04 01:21:36;;;;;;;47.92;17.65;;;;;;;-0.88;100.00;98949.06;4353570;33;20044;-79
2022/03/04 01:24:02;;;;;;;67.90;20.70;;;;;;;-1.14;100.00;98892.12;4356075;32;20395;-80
2022/03/04 01:26:29;;;;;;;51.67;18.95;;;;;;;-0.92;100.00;98921.34;4356085;32;20048;-80
2022/03/04 01:28:56;;;;;;;57.25;19.75;;;;;;;-0.83;100.00;98951.19;4348487;32;20044;-78
2022/03/04 01:31:22;;;;;;;56.85;20.40;;;;;;;-0.91;100.00;98928.28;4356097;32;20098;-80
2022/03/04 01:33:49;;;;;;;59.47;20.35;;;;;;;-0.76;100.00;98947.66;4357141;32;20056;-79
2022/03/04 01:36:16;;;;;;;55.30;18.62;;;;;;;-0.71;100.00;98943.66;4357528;32;20048;-81
2022/03/04 01:38:43;;;;;;;49.83;18.25;;;;;;;-1.07;100.00;98891.41;4356758;32;20387;-81
2022/03/04 01:41:10;;;;;;;50.45;18.87;;;;;;;-0.88;100.00;98937.69;4355090;32;20361;-80
2022/03/04 01:43:36;;;;;;;43.38;16.35;;;;;;;-1.11;100.00;98896.25;4355505;32;20116;-80
2022/03/04 01:46:17;;;;;;;54.95;19.60;;;;;;;-1.13;100.00;98899.06;4356780;32;20047;-80
2022/03/04 01:48:45;;;;;;;54.35;19.87;;;;;;;-1.10;100.00;98885.50;4358102;32;20414;-81
2022/03/04 01:51:13;;;;;;;55.20;19.90;;;;;;;-0.78;100.00;98941.72;4340868;33;20105;-82
2022/03/04 01:53:41;;;;;;;57.78;20.48;;;;;;;-0.83;100.00;98925.59;4357991;32;20380;-82
2022/03/04 01:56:08;;;;;;;55.92;21.00;;;;;;;-1.03;100.00;98887.44;4356810;32;20381;-83
2022/03/04 01:58:35;;;;;;;65.82;23.05;;;;;;;-0.82;100.00;98919.28;4357150;32;20065;-84
2022/03/04 02:01:02;;;;;;;45.25;19.87;;;;;;;-0.76;100.00;98930.97;4341806;33;20480;-80
2022/03/04 02:03:39;;;;;;;59.03;19.30;;;;;;;-0.74;100.00;98935.06;4356030;32;20067;-82
2022/03/04 02:06:06;;;;;;;54.70;19.75;;;;;;;-1.14;100.00;98876.25;4340841;33;20043;-82
2022/03/04 02:08:32;;;;;;;57.62;19.33;;;;;;;-0.71;100.00;98933.09;4342438;33;20066;-81
2022/03/04 02:10:59;;;;;;;49.80;19.48;;;;;;;-0.69;100.00;98941.66;4341423;33;20087;-81
2022/03/04 02:13:25;;;;;;;55.42;19.23;;;;;;;-0.71;100.00;98922.50;4336611;32;20081;-82
2022/03/04 02:15:52;;;;;;;53.60;22.50;;;;;;;-0.77;100.00;98919.56;4352519;32;20097;-82
2022/03/04 02:18:18;;;;;;;57.28;20.40;;;;;;;-0.69;100.00;98931.06;4342909;33;20081;-82
2022/03/04 02:20:48;;;;;;;57.38;18.42;;;;;;;-0.64;100.00;98929.56;4343555;32;20118;-82
2022/03/04 02:23:15;;;;;;;50.45;19.65;;;;;;;-0.69;100.00;98936.38;4339960;33;20062;-80
2022/03/04 02:25:46;;;;;;;49.00;20.67;;;;;;;-0.77;100.00;98934.59;4355256;32;20067;-79
2022/03/04 02:28:12;;;;;;;54.72;19.80;;;;;;;-0.79;100.00;98920.75;4341675;33;20036;-79
2022/03/04 02:30:39;;;;;;;56.10;20.35;;;;;;;-1.01;100.00;98894.16;4341271;33;20065;-79
2022/03/04 02:33:13;;;;;;;56.55;20.62;;;;;;;-1.06;100.00;98882.50;4354670;32;20105;-79
2022/03/04 02:35:41;;;;;;;45.67;19.45;;;;;;;-0.99;100.00;98904.56;4354534;32;20058;-79
2022/03/04 02:38:07;;;;;;;51.63;20.77;;;;;;;-0.77;100.00;98945.19;4341838;33;20403;-79
2022/03/04 02:40:34;;;;;;;50.28;19.40;;;;;;;-0.99;100.00;98899.28;4341680;33;20043;-81
2022/03/04 02:43:02;;;;;;;45.10;18.45;;;;;;;-1.07;100.00;98891.41;4340825;33;20101;-80
2022/03/04 02:45:29;;;;;;;55.67;18.83;;;;;;;-0.89;100.00;98928.94;4339384;33;20028;-80
2022/03/04 02:47:55;;;;;;;44.88;17.95;;;;;;;-0.79;100.00;98950.66;4341817;33;20056;-81
2022/03/04 02:50:22;;;;;;;44.78;18.42;;;;;;;-1.13;100.00;98893.78;4354709;32;20043;-82
2022/03/04 02:52:49;;;;;;;51.92;20.20;;;;;;;-0.77;100.00;98940.72;4354926;32;20412;-82
2022/03/04 02:55:15;;;;;;;48.90;18.95;;;;;;;-1.20;100.00;98871.69;4355015;32;20468;-81
2022/03/04 02:57:45;;;;;;;54.10;20.70;;;;;;;-0.76;100.00;98947.66;4338177;33;20088;-82
2022/03/04 03:00:15;;;;;;;57.28;21.92;;;;;;;-0.70;100.00;98945.28;4345349;32;20055;-81
2022/03/04 03:02:42;;;;;;;45.88;18.58;;;;;;;-0.70;100.00;98940.00;4353940;32;20083;-81
2022/03/04 03:05:09;;;;;;;43.40;17.25;;;;;;;-0.65;100.00;98953.53;4342391;32;20056;-81
2022/03/04 03:07:37;;;;;;;43.08;18.00;;;;;;;-0.77;100.00;98924.03;4355921;32;20040;-78
2022/03/04 03:10:04;;;;;;;45.78;18.00;;;;;;;-0.96;100.00;98888.34;4354570;32;20047;-81
2022/03/04 03:12:32;;;;;;;37.40;16.23;;;;;;;-0.90;100.00;98903.50;4354591;32;20172;-80
2022/03/04 03:14:59;;;;;;;37.92;16.08;;;;;;;-0.62;100.00;98939.94;4340115;33;20032;-80
2022/03/04 03:17:25;;;;;;;49.80;17.23;;;;;;;-0.68;100.00;98944.13;4339793;33;20070;-81
2022/03/04 03:19:52;;;;;;;43.38;16.77;;;;;;;-1.25;100.00;98842.34;4336604;33;20036;-80
2022/03/04 03:22:25;;;;;;;33.95;15.88;;;;;;;-0.65;100.00;98937.66;4341498;32;20047;-80
2022/03/04 03:24:51;;;;;;;50.67;17.30;;;;;;;-0.62;100.00;98942.59;4355533;32;20367;-81
2022/03/04 03:27:18;;;;;;;52.95;18.67;;;;;;;-0.90;100.00;98895.56;4352608;32;20091;-81
2022/03/04 03:29:45;;;;;;;40.00;15.85;;;;;;;-0.87;100.00;98897.84;4337819;33;20044;-79
2022/03/04 03:32:12;;;;;;;40.63;16.17;;;;;;;-0.89;100.00;98889.28;4339077;33;20125;-80
2022/03/04 03:34:39;;;;;;;33.20;15.73;;;;;;;-0.60;100.00;98944.03;4351144;32;20052;-81
2022/03/04 03:37:07;;;;;;;46.42;16.65;;;;;;;-1.11;100.00;98862.69;4355878;32;20040;-81
2022/03/04 03:39:34;;;;;;;41.40;17.80;;;;;;;-0.60;100.00;98935.28;4354837;32;20043;-81
2022/03/04 03:42:01;;;;;;;42.38;17.73;;;;;;;-0.59;100.00;98942.19;4352963;32;20043;-80
2022/03/04 03:44:28;;;;;;;39.25;18.50;;;;;;;-0.87;100.00;98897.03;4355322;32;20051;-81
2022/03/04 03:46:55;;;;;;;39.05;16.10;;;;;;;-0.89;100.00;98884.00;4354755;32;20369;-81
2022/03/04 03:49:23;;;;;;;46.72;18.12;;;;;;;-0.93;100.00;98882.69;4356038;32;20395;-81
2022/03/04 03:51:49;;;;;;;48.50;18.35;;;;;;;-0.89;100.00;98886.63;4341858;32;20031;-78
2022/03/04 03:54:16;;;;;;;43.80;16.80;;;;;;;-0.89;100.00;98889.28;4354479;32;20369;-81
2022/03/04 03:56:43;;;;;;;37.83;15.63;;;;;;;-0.60;100.00;98936.09;4355482;32;20040;-81
2022/03/04 03:59:10;;;;;;;45.95;17.50;;;;;;;-0.84;100.00;98886.91;4355083;32;20410;-81
2022/03/04 04:01:38;;;;;;;38.40;15.95;;;;;;;-0.77;100.00;98895.75;4341348;33;20057;-81
2022/03/04 04:04:15;;;;;;;34.60;14.05;;;;;;;-0.39;100.00;98938.03;4353879;32;20094;-81
2022/03/04 04:06:43;;;;;;;35.92;14.98;;;;;;;-0.37;100.00;98936.06;4338260;33;20035;-80
2022/03/04 04:09:10;;;;;;;26.60;14.10;;;;;;;-0.21;100.00;98942.16;4350699;33;20052;-82
2022/03/04 04:11:38;;;;;;;32.58;13.98;;;;;;;-0.10;100.00;98946.19;4355187;32;20087;-81
2022/03/04 04:14:06;;;;;;;30.48;14.13;;;;;;;-0.11;100.00;98945.38;4353830;32;20044;-81
2022/03/04 04:16:34;;;;;;;30.42;13.45;;;;;;;-0.31;100.00;98896.63;4355061;32;20077;-81
2022/03/04 04:19:01;;;;;;;37.67;14.48;;;;;;;-0.90;100.00;98792.47;4355109;32;20050;-83
2022/03/04 04:21:28;;;;;;;28.73;12.35;;;;;;;-0.26;100.00;98899.56;4355724;32;20069;-81
2022/03/04 04:23:55;;;;;;;29.80;13.07;;;;;;;0.04;100.00;98953.31;4340404;33;20179;-80
2022/03/04 04:26:22;;;;;;;31.33;14.00;;;;;;;-0.62;100.00;98842.91;4338352;33;20090;-82
2022/03/04 04:28:50;;;;;;;22.87;11.52;;;;;;;0.14;100.00;98958.31;4340266;33;20077;-81
2022/03/04 04:31:18;;;;;;;31.75;13.43;;;;;;;-0.25;100.00;98896.72;4355062;33;20044;-83
2022/03/04 04:33:45;;;;;;;36.60;14.73;;;;;;;0.03;100.00;98961.44;4354509;33;20036;-80
2022/03/04 04:36:12;;;;;;;33.55;14.00;;;;;;;-0.20;100.00;98930.59;4354783;33;20056;-77
2022/03/04 04:38:39;;;;;;;25.92;13.02;;;;;;;-0.06;100.00;98964.16;4342025;33;20085;-79
2022/03/04 04:41:06;;;;;;;32.08;14.70;;;;;;;-0.27;100.00;98919.06;4342861;33;20044;-80
2022/03/04 04:43:33;;;;;;;34.60;14.38;;;;;;;-0.05;100.00;98933.22;4355843;33;20183;-82
2022/03/04 04:46:00;;;;;;;44.05;13.50;;;;;;;0.11;100.00;98958.69;4353602;33;20044;-81
2022/03/04 04:48:27;;;;;;;35.60;15.18;;;;;;;0.08;100.00;98959.03;4339276;33;20046;-78
2022/03/04 04:50:53;;;;;;;37.67;15.57;;;;;;;0.06;100.00;98961.06;4353980;33;20047;-82
2022/03/04 04:53:20;;;;;;;34.78;16.23;;;;;;;0.16;100.00;98966.88;4341515;33;20090;-81
2022/03/04 04:55:47;;;;;;;35.75;15.88;;;;;;;0.27;100.00;98966.44;4341636;33;20043;-80
2022/03/04 04:58:13;;;;;;;35.92;15.55;;;;;;;0.08;100.00;98912.22;4353978;32;20074;-80
2022/03/04 05:00:41;;;;;;;37.95;17.33;;;;;;;-0.38;100.00;98881.50;4354488;32;20039;-80
2022/03/04 05:03:07;;;;;;;44.20;17.45;;;;;;;0.13;100.00;98968.09;4356326;32;20081;-80
2022/03/04 05:05:35;;;;;;;37.88;14.27;;;;;;;-0.52;100.00;98884.97;4357775;32;20048;-80
2022/03/04 05:08:02;;;;;;;41.13;16.45;;;;;;;0.26;100.00;98961.34;4356903;32;20069;-80
2022/03/04 05:10:29;;;;;;;39.50;17.17;;;;;;;0.11;100.00;98964.81;4357478;32;20061;-78
2022/03/04 05:12:56;;;;;;;40.60;16.20;;;;;;;0.16;100.00;98953.66;4355379;32;20085;-79
2022/03/04 05:15:22;;;;;;;41.30;16.65;;;;;;;-0.16;100.00;98918.63;4356711;32;20480;-80
2022/03/04 05:17:51;;;;;;;39.55;16.12;;;;;;;-0.40;100.00;98878.22;4357682;32;20110;-80
2022/03/04 05:20:18;;;;;;;41.42;15.02;;;;;;;0.06;100.00;98955.75;4355989;32;20076;-79
2022/03/04 05:22:45;;;;;;;32.67;15.18;;;;;;;-0.07;100.00;98967.00;4355977;32;20089;-79
2022/03/04 05:25:13;;;;;;;37.00;15.75;;;;;;;-0.40;100.00;98925.84;4343727;32;20066;-79
2022/03/04 05:27:40;;;;;;;38.70;15.65;;;;;;;0.01;100.00;98974.03;4343513;33;20077;-82
2022/03/04 05:30:07;;;;;;;35.20;14.80;;;;;;;-0.47;100.00;98927.53;4355433;32;20099;-81
2022/03/04 05:32:34;;;;;;;31.98;14.00;;;;;;;-0.21;100.00;98972.13;4354928;32;20065;-82
2022/03/04 05:35:01;;;;;;;34.38;14.48;;;;;;;-0.54;100.00;98937.22;4354762;32;20062;-78
2022/03/04 05:37:27;;;;;;;44.72;15.30;;;;;;;-0.34;100.00;98955.22;4357742;32;20808;-79
2022/03/04 05:39:54;;;;;;;35.72;13.88;;;;;;;-0.33;100.00;98967.44;4357588;32;20073;-79
2022/03/04 05:42:20;;;;;;;33.88;12.45;;;;;;;-0.57;100.00;98925.16;4356544;32;20061;-83
2022/03/04 05:44:47;;;;;;;34.20;13.73;;;;;;;-0.35;100.00;98990.59;4354743;32;20044;-77
2022/03/04 05:47:14;;;;;;;36.85;15.18;;;;;;;-0.30;100.00;98993.53;4343764;32;20044;-78
2022/03/04 05:49:46;;;;;;;36.22;13.68;;;;;;;-0.38;100.00;99000.53;4355213;32;20036;-79
2022/03/04 05:52:13;;;;;;;35.88;15.52;;;;;;;-0.42;100.00;98996.59;4340392;33;20464;-77
2022/03/04 05:54:39;;;;;;;36.00;14.75;;;;;;;-0.39;100.00;98996.25;4353458;32;20085;-78
2022/03/04 05:57:06;;;;;;;33.50;14.40;;;;;;;-0.49;100.00;98963.94;4353230;32;20044;-79
2022/03/04 05:59:34;;;;;;;33.08;13.02;;;;;;;-0.42;100.00;98993.97;4355560;32;20064;-79
2022/03/04 06:02:02;;;;;;;44.08;16.45;;;;;;;-0.75;100.00;98944.03;4356257;32;20094;-80
2022/03/04 06:04:29;;;;;;;36.22;15.65;;;;;;;-0.36;100.00;98989.78;4355079;32;20424;-79
2022/03/04 06:06:56;;;;;;;40.47;16.35;;;;;;;-0.22;100.00;99006.69;4342200;33;20361;-79
2022/03/04 06:09:27;;;;;;;42.22;15.50;;;;;;;-0.68;100.00;98927.44;4354556;32;20091;-79
2022/03/04 06:11:56;;;;;;;39.85;16.58;;;;;;;-0.24;100.00;99003.37;4338858;33;20051;-82
2022/03/04 06:14:22;;;;;;;60.55;22.23;;;;;;;-0.54;100.00;98955.75;4342138;33;20096;-80
2022/03/04 06:16:49;;;;;;;91.00;24.70;;;;;;;-0.28;100.00;98999.47;4340948;32;20053;-79
2022/03/04 06:19:16;;;;;;;52.97;20.20;;;;;;;-0.63;100.00;98952.31;4339661;33;20031;-77
2022/03/04 06:21:42;;;;;;;48.47;21.23;;;;;;;-0.47;100.00;98972.53;4355240;32;20116;-79
2022/03/04 06:24:09;;;;;;;44.53;20.73;;;;;;;-0.56;100.00;98963.00;4355835;32;20054;-79
2022/03/04 06:26:36;;;;;;;41.28;16.70;;;;;;;-0.33;100.00;98983.31;4355777;32;20040;-79
2022/03/04 06:29:02;;;;;;;37.35;13.27;;;;;;;-0.07;100.00;99020.75;4357022;32;20403;-79
2022/03/04 06:31:29;;;;;;;47.03;18.17;;;;;;;-0.10;100.00;99026.41;4355592;32;20065;-79
2022/03/04 06:33:55;;;;;;;75.65;22.45;;;;;;;-0.12;100.00;99017.81;4340000;33;20065;-77
2022/03/04 06:36:22;;;;;;;83.00;25.42;;;;;;;-0.27;100.00;98978.13;4339762;33;20059;-77
2022/03/04 06:38:50;;;;;;;95.28;29.27;;;;;;;0.01;100.00;99024.34;4354934;32;20073;-78
2022/03/04 06:41:17;;;;;;;63.25;21.30;;;;;;;0.09;100.00;99042.78;4340390;33;20077;-78
2022/03/04 06:43:44;;;;;;;33.50;14.50;;;;;;;-0.27;100.00;98993.16;4339143;33;20065;-79
2022/03/04 06:46:11;;;;;;;29.10;12.90;;;;;;;-0.21;100.00;99003.88;4354191;32;20081;-78
2022/03/04 06:48:38;;;;;;;36.42;12.95;;;;;;;-0.06;100.00;99054.16;4341687;33;20048;-77
2022/03/04 06:51:04;;;;;;;43.30;16.42;;;;;;;-0.10;100.00;99047.56;4355460;32;20056;-77
2022/03/04 06:53:31;;;;;;;35.65;14.50;;;;;;;-0.14;100.00;99041.03;4353031;32;20048;-77
2022/03/04 06:55:58;;;;;;;19.83;10.02;;;;;;;-0.36;100.00;99000.38;4352674;32;20403;-77
2022/03/04 06:58:25;;;;;;;26.17;11.80;;;;;;;-0.27;100.00;99051.38;4341324;33;20102;-78
2022/03/04 07:00:52;;;;;;;32.72;11.88;;;;;;;-0.74;100.00;98971.28;4356034;32;20043;-76
2022/03/04 07:03:19;;;;;;;39.50;13.75;;;;;;;-0.25;100.00;99038.81;4354258;32;20438;-77
2022/03/04 07:05:46;;;;;;;34.58;13.68;;;;;;;-0.13;100.00;99057.72;4355929;32;20044;-76
2022/03/04 07:08:13;;;;;;;42.38;15.23;;;;;;;-0.38;100.00;99008.47;4352492;32;20111;-77
2022/03/04 07:10:45;;;;;;;42.05;15.07;;;;;;;-0.30;100.00;99052.56;4341877;33;20328;-77
2022/03/04 07:13:12;;;;;;;;;;;;;;;-0.22;100.00;99059.62;4354659;32;20083;-76
2022/03/04 07:15:39;;;;;;;32.50;12.98;;;;;;;-0.12;100.00;99059.38;4356259;32;19952;-77
2022/03/04 07:18:06;;;;;;;30.67;13.65;;;;;;;-0.41;100.00;99013.31;4355418;32;20031;-76
2022/03/04 07:20:33;;;;;;;39.45;13.85;;;;;;;-0.15;100.00;99060.53;4357158;32;20478;-77
2022/03/04 07:23:00;;;;;;;32.78;13.27;;;;;;;-0.53;100.00;98990.94;4342803;32;20040;-77
2022/03/04 07:25:27;;;;;;;36.00;14.68;;;;;;;0.05;100.00;99065.31;4341772;33;20073;-83
2022/03/04 07:27:54;;;;;;;37.78;13.18;;;;;;;0.11;100.00;99069.88;4338324;33;20078;-77
2022/03/04 07:30:21;;;;;;;24.23;11.12;;;;;;;0.08;100.00;99072.88;4353458;32;20059;-77
2022/03/04 07:32:49;;;;;;;34.63;12.70;;;;;;;-0.48;100.00;98977.97;4353252;32;20429;-77
2022/03/04 07:35:15;;;;;;;19.23;10.05;;;;;;;-0.03;100.00;99061.75;4340083;33;20040;-76
2022/03/04 07:37:43;;;;;;;33.28;11.95;;;;;;;-0.24;100.00;99029.84;4351399;32;20095;-76
2022/03/04 07:40:13;;;;;;;13.27;7.32;;;;;;;-0.01;100.00;99070.31;4349568;32;20073;-76
2022/03/04 07:42:40;;;;;;;24.85;10.70;;;;;;;-0.23;100.00;99031.50;4337207;33;20446;-77
2022/03/04 07:45:08;;;;;;;24.98;11.10;;;;;;;0.03;100.00;99072.63;4337121;33;20393;-77
2022/03/04 07:47:36;;;;;;;27.52;11.00;;;;;;;-0.16;100.00;99036.91;4352453;32;20051;-78
2022/03/04 07:50:08;;;;;;;24.55;11.80;;;;;;;0.19;100.00;99088.34;4349112;32;20523;-78
2022/03/04 07:52:36;;;;;;;18.73;7.97;;;;;;;-0.17;100.00;99040.56;4340904;32;20117;-78
2022/03/04 07:55:08;;;;;;;17.83;10.00;;;;;;;0.20;100.00;99100.59;4354126;32;20075;-78
2022/03/04 07:57:35;;;;;;;32.47;13.73;;;;;;;0.11;100.00;99091.06;4353554;32;20040;-79
2022/03/04 08:00:08;;;;;;;27.05;12.88;;;;;;;0.23;100.00;99089.62;4339532;33;20035;-79
2022/03/04 08:02:39;;;;;;;25.98;13.95;;;;;;;-0.29;100.00;99027.75;4342976;32;20024;-78
2022/03/04 08:05:08;;;;;;;34.25;16.60;;;;;;;0.26;100.00;99099.06;4342928;32;20035;-77
2022/03/04 08:07:36;;;;;;;39.97;18.35;;;;;;;0.30;100.00;99085.25;4343210;32;20044;-77
2022/03/04 08:10:05;;;;;;;27.30;13.55;;;;;;;0.33;100.00;99105.25;4341785;33;20074;-79
2022/03/04 08:12:32;;;;;;;31.35;14.13;;;;;;;-0.07;100.00;99041.13;4354273;32;20056;-79
2022/03/04 08:14:59;;;;;;;26.02;12.63;;;;;;;0.31;100.00;99102.78;4342107;32;20051;-80
2022/03/04 08:17:26;;;;;;;28.45;12.15;;;;;;;0.42;100.00;99113.94;4353836;32;20039;-81
2022/03/04 08:19:55;;;;;;;31.67;14.60;;;;;;;0.46;100.00;99101.97;4354381;32;20109;-80
2022/03/04 08:22:21;;;;;;;25.37;12.32;;;;;;;0.27;100.00;99053.84;4354492;32;20825;-81
2022/03/04 08:24:48;;;;;;;30.85;13.48;;;;;;;0.81;100.00;99118.94;4353434;33;20480;-80
2022/03/04 08:27:15;;;;;;;23.42;12.07;;;;;;;0.93;100.00;99111.38;4339064;33;20071;-81
2022/03/04 08:29:42;;;;;;;37.60;11.70;;;;;;;1.02;100.00;99110.25;4353116;33;20047;-81
2022/03/04 08:32:09;;;;;;;19.27;9.50;;;;;;;1.00;100.00;99096.34;4339330;33;20117;-80
2022/03/04 08:34:35;;;;;;;30.75;13.60;;;;;;;0.81;100.00;99118.13;4353099;32;20048;-81
2022/03/04 08:37:02;;;;;;;30.77;11.60;;;;;;;0.79;100.00;99112.19;4357721;32;20089;-81
2022/03/04 08:39:29;;;;;;;24.92;11.63;;;;;;;0.61;100.00;99070.19;4343844;33;20109;-81
2022/03/04 08:41:56;;;;;;;20.30;8.85;;;;;;;0.79;100.00;99110.38;4328029;33;20066;-80
2022/03/04 08:44:23;;;;;;;14.57;6.35;;;;;;;0.34;100.00;99075.94;4356993;32;20093;-80
2022/03/04 08:46:49;;;;;;;24.42;11.45;;;;;;;0.03;100.00;99049.59;4354273;32;20200;-79
2022/03/04 08:49:19;;;;;;;23.42;9.82;;;;;;;0.59;100.00;99126.03;4355363;32;20051;-78
2022/03/04 08:51:46;;;;;;;20.67;8.43;;;;;;;0.47;100.00;99108.91;4355678;32;20036;-78
2022/03/04 08:54:12;;;;;;;18.85;9.88;;;;;;;0.60;100.00;99126.84;4355171;32;20040;-78
2022/03/04 08:56:39;;;;;;;17.15;9.23;;;;;;;0.27;100.00;99080.34;4352625;32;20662;-79
2022/03/04 08:59:05;;;;;;;13.18;6.78;;;;;;;0.58;100.00;99118.25;4353635;32;20040;-78
2022/03/04 09:01:33;;;;;;;22.98;10.90;;;;;;;0.20;100.00;99084.69;4355152;32;20439;-79
2022/03/04 09:04:00;;;;;;;13.43;7.78;;;;;;;0.48;100.00;99092.00;4355341;32;20063;-76
2022/03/04 09:06:26;;;;;;;15.45;8.85;;;;;;;0.72;100.00;99131.50;4354918;32;20092;-78
2022/03/04 09:08:53;;;;;;;19.48;8.98;;;;;;;0.68;100.00;99119.59;4342030;32;20039;-78
2022/03/04 09:11:21;;;;;;;16.35;8.55;;;;;;;0.82;100.00;99114.50;4354540;32;20381;-78
2022/03/04 09:13:48;;;;;;;16.12;8.32;;;;;;;0.95;100.00;99119.94;4341753;33;20068;-78
2022/03/04 09:16:15;;;;;;;20.55;10.00;;;;;;;1.11;100.00;99139.31;4343259;33;20043;-78
2022/03/04 09:18:41;;;;;;;19.37;9.45;;;;;;;1.37;100.00;99139.63;4356866;32;20036;-79
2022/03/04 09:21:08;;;;;;;14.48;9.07;;;;;;;1.25;100.00;99096.84;4342564;33;20073;-79
2022/03/04 09:23:35;;;;;;;16.83;8.60;;;;;;;1.68;100.00;99113.81;4355699;32;20078;-78
2022/03/04 09:26:02;;;;;;;13.95;7.53;;;;;;;1.89;100.00;99152.81;4355126;32;20078;-79
2022/03/04 09:28:29;;;;;;;10.45;6.57;;;;;;;1.63;100.00;99138.25;4343080;32;20094;-78
2022/03/04 09:30:55;;;;;;;19.95;8.82;;;;;;;1.54;100.00;99152.66;4354462;32;20483;-78
2022/03/04 09:35:55;;;;;;;12.07;7.22;;;;;;;1.66;100.00;99148.50;4356613;32;20073;-79
2022/03/04 09:38:22;;;;;;;14.90;6.57;;;;;;;1.41;100.00;99098.44;4357315;32;20073;-79
2022/03/04 09:40:49;;;;;;;21.23;9.95;;;;;;;1.65;100.00;99144.19;4355728;32;20169;-78
2022/03/04 09:43:18;;;;;;;13.48;8.18;;;;;;;1.83;100.00;99164.19;4354879;32;20093;-79
2022/03/04 09:45:46;;;;;;;15.52;8.32;;;;;;;1.56;100.00;99116.13;4356238;32;20128;-79
2022/03/04 09:48:14;;;;;;;18.10;8.80;;;;;;;1.65;100.00;99148.69;4344283;32;20087;-78
2022/03/04 09:50:46;;;;;;;10.43;4.90;;;;;;;1.27;100.00;99112.56;4355590;32;20131;-78
2022/03/04 09:53:14;;;;;;;11.75;8.45;;;;;;;1.32;100.00;99168.53;4341296;33;20385;-78
2022/03/04 09:55:42;;;;;;;8.18;4.70;;;;;;;1.03;100.00;99127.78;4342174;33;20079;-79
2022/03/04 09:58:16;;;;;;;8.88;5.25;;;;;;;1.35;100.00;99176.13;4356803;32;20491;-78
2022/03/04 10:00:44;;;;;;;13.77;8.23;;;;;;;1.27;100.00;99176.22;4356736;32;20036;-78
2022/03/04 10:03:29;;;;;;;9.52;5.85;;;;;;;1.42;100.00;99169.06;4339945;33;20036;-78
2022/03/04 10:05:58;;;;;;;16.73;7.97;;;;;;;1.47;100.00;99165.03;4356004;32;20069;-77
2022/03/04 10:08:25;;;;;;;20.05;8.55;;;;;;;1.49;100.00;99157.72;4329241;33;20450;-77
2022/03/04 10:10:53;;;;;;;11.07;5.65;;;;;;;1.33;100.00;99117.13;4353041;32;20040;-78
2022/03/04 10:13:42;;;;;;;11.80;7.43;;;;;;;1.52;100.00;99166.12;4339092;33;20154;-78
2022/03/04 10:16:11;;;;;;;13.23;8.30;;;;;;;1.73;100.00;99160.00;4339517;33;20070;-79
2022/03/04 10:18:37;;;;;;;8.73;5.70;;;;;;;1.40;100.00;99118.00;4355058;32;20043;-78
2022/03/04 10:21:04;;;;;;;9.45;6.18;;;;;;;1.26;100.00;99116.22;4328326;33;20122;-77
2022/03/04 10:23:31;;;;;;;14.00;7.82;;;;;;;1.70;100.00;99165.69;4343425;33;20069;-77
2022/03/04 10:26:00;;;;;;;18.12;7.55;;;;;;;1.73;100.00;99165.31;4356053;32;20414;-77
2022/03/04 10:28:30;;;;;;;6.65;4.93;;;;;;;1.90;100.00;99141.16;4355122;32;20139;-77
2022/03/04 10:30:57;;;;;;;10.65;6.25;;;;;;;1.66;100.00;99116.66;4339707;33;20039;-77
2022/03/04 10:33:27;;;;;;;9.15;5.95;;;;;;;1.60;100.00;99106.78;4360542;32;20244;-77
2022/03/04 10:36:14;;;;;;;11.18;6.03;;;;;;;1.92;100.00;99109.94;4346791;32;20096;-77
2022/03/04 10:38:42;;;;;;;9.93;5.57;;;;;;;2.15;100.00;99131.78;4341653;32;20085;-77
2022/03/04 10:41:28;;;;;;;14.57;5.35;;;;;;;2.28;100.00;99135.53;4355093;32;20044;-78
2022/03/04 10:43:56;;;;;;;13.15;5.35;;;;;;;2.38;100.00;99157.28;4355664;32;20345;-76
2022/03/04 10:46:23;;;;;;;17.25;7.28;;;;;;;1.84;100.00;99054.31;4326774;32;20090;-78
2022/03/04 10:48:54;;;;;;;8.07;4.40;;;;;;;2.54;100.00;99151.69;4352910;32;20035;-77
2022/03/04 10:52:07;;;;;;;10.10;4.87;;;;;;;2.17;100.00;99087.25;4337515;33;20419;-80
2022/03/04 10:54:33;;;;;;;14.13;6.70;;;;;;;2.72;100.00;99163.66;4333512;33;20342;-77
2022/03/04 10:57:03;;;;;;;13.30;6.53;;;;;;;2.72;100.00;99155.66;4354146;32;20066;-77
2022/03/04 10:59:30;;;;;;;15.63;5.45;;;;;;;2.85;100.00;99155.72;4356197;32;20147;-77
2022/03/04 11:01:56;;;;;;;7.53;4.35;;;;;;;2.77;100.00;99161.22;4339817;32;20926;-77
2022/03/04 11:04:24;;;;;;;9.15;4.40;;;;;;;2.36;100.00;99122.09;4336838;33;20091;-77
2022/03/04 11:06:51;;;;;;;4.80;3.55;;;;;;;2.27;100.00;99155.16;4336381;33;20960;-76
2022/03/04 11:09:24;;;;;;;6.82;3.55;;;;;;;2.33;100.00;99165.00;4353172;32;20385;-77
2022/03/04 11:11:51;;;;;;;10.30;4.53;;;;;;;1.56;100.00;99041.81;4352077;32;20141;-77
2022/03/04 11:14:20;;;;;;;9.40;3.50;;;;;;;2.31;100.00;99161.72;4336795;33;20056;-78
2022/03/04 11:16:48;;;;;;;9.73;4.37;;;;;;;2.33;100.00;99157.03;4346549;32;20087;-78
2022/03/04 11:19:17;;;;;;;12.77;5.80;;;;;;;1.80;100.00;99086.56;4343954;33;20372;-76